sensor_id;sensor_type;location;lat;lon;timestamp;P1;durP1;ratioP1;P2;durP2;ratioP2
57433;SDS011;43277;52.672;6.984;2022-10-17T00:00:45;10.70;;;6.10;;
57433;SDS011;43277;52.672;6.984;2022-10-17T00:03:11;10.68;;;5.65;;
57433;SDS011;43277;52.672;6.984;2022-10-17T00:05:40;11.43;;;5.60;;
57433;SDS011;43277;52.672;6.984;2022-10-17T00:08:09;9.70;;;5.88;;
57433;SDS011;43277;52.672;6.984;2022-10-17T00:10:36;11.93;;;6.00;;
57433;SDS011;43277;52.672;6.984;2022-10-17T00:13:02;10.40;;;5.38;;
57433;SDS011;43277;52.672;6.984;2022-10-17T00:15:28;9.35;;;5.70;;
57433;SDS011;43277;52.672;6.984;2022-10-17T00:17:54;14.45;;;6.40;;
57433;SDS011;43277;52.672;6.984;2022-10-17T00:20:20;13.30;;;6.10;;
57433;SDS011;43277;52.672;6.984;2022-10-17T00:22:45;10.90;;;5.38;;
57433;SDS011;43277;52.672;6.984;2022-10-17T00:25:11;12.80;;;5.68;;
57433;SDS011;43277;52.672;6.984;2022-10-17T00:27:37;12.30;;;5.88;;
57433;SDS011;43277;52.672;6.984;2022-10-17T00:30:05;10.43;;;5.97;;
57433;SDS011;43277;52.672;6.984;2022-10-17T00:32:33;10.13;;;5.25;;
57433;SDS011;43277;52.672;6.984;2022-10-17T00:34:59;10.45;;;5.50;;
57433;SDS011;43277;52.672;6.984;2022-10-17T00:37:24;11.43;;;5.57;;
57433;SDS011;43277;52.672;6.984;2022-10-17T00:39:50;11.63;;;5.53;;
57433;SDS011;43277;52.672;6.984;2022-10-17T00:42:16;11.15;;;5.38;;
57433;SDS011;43277;52.672;6.984;2022-10-17T00:47:11;10.43;;;5.78;;
57433;SDS011;43277;52.672;6.984;2022-10-17T00:49:40;10.75;;;5.53;;
57433;SDS011;43277;52.672;6.984;2022-10-17T00:52:09;11.10;;;5.70;;
57433;SDS011;43277;52.672;6.984;2022-10-17T00:54:39;9.50;;;5.50;;
57433;SDS011;43277;52.672;6.984;2022-10-17T00:57:08;14.50;;;6.28;;
57433;SDS011;43277;52.672;6.984;2022-10-17T00:59:34;11.70;;;6.70;;
57433;SDS011;43277;52.672;6.984;2022-10-17T01:02:06;10.75;;;5.60;;
57433;SDS011;43277;52.672;6.984;2022-10-17T01:04:35;10.43;;;5.88;;
57433;SDS011;43277;52.672;6.984;2022-10-17T01:07:02;10.13;;;6.85;;
57433;SDS011;43277;52.672;6.984;2022-10-17T01:09:28;11.18;;;6.25;;
57433;SDS011;43277;52.672;6.984;2022-10-17T01:12:00;11.13;;;6.70;;
57433;SDS011;43277;52.672;6.984;2022-10-17T01:14:38;11.32;;;6.80;;
57433;SDS011;43277;52.672;6.984;2022-10-17T01:17:10;12.20;;;6.82;;
57433;SDS011;43277;52.672;6.984;2022-10-17T01:25:45;11.50;;;6.57;;
57433;SDS011;43277;52.672;6.984;2022-10-17T01:36:26;11.23;;;6.47;;
57433;SDS011;43277;52.672;6.984;2022-10-17T01:39:14;12.43;;;7.13;;
57433;SDS011;43277;52.672;6.984;2022-10-17T01:44:45;13.48;;;7.35;;
57433;SDS011;43277;52.672;6.984;2022-10-17T01:47:20;12.23;;;7.57;;
57433;SDS011;43277;52.672;6.984;2022-10-17T01:49:50;15.00;;;7.85;;
57433;SDS011;43277;52.672;6.984;2022-10-17T01:52:23;12.85;;;8.13;;
57433;SDS011;43277;52.672;6.984;2022-10-17T01:54:54;12.93;;;7.50;;
57433;SDS011;43277;52.672;6.984;2022-10-17T01:57:33;12.65;;;7.53;;
57433;SDS011;43277;52.672;6.984;2022-10-17T02:00:03;11.93;;;7.47;;
57433;SDS011;43277;52.672;6.984;2022-10-17T02:02:32;10.02;;;7.55;;
57433;SDS011;43277;52.672;6.984;2022-10-17T02:04:58;14.20;;;8.50;;
57433;SDS011;43277;52.672;6.984;2022-10-17T02:07:25;11.82;;;8.07;;
57433;SDS011;43277;52.672;6.984;2022-10-17T02:09:51;11.68;;;8.65;;
57433;SDS011;43277;52.672;6.984;2022-10-17T02:21:17;12.38;;;8.95;;
57433;SDS011;43277;52.672;6.984;2022-10-17T02:24:25;13.43;;;9.27;;
57433;SDS011;43277;52.672;6.984;2022-10-17T02:27:05;12.98;;;9.45;;
57433;SDS011;43277;52.672;6.984;2022-10-17T02:29:43;12.40;;;10.13;;
57433;SDS011;43277;52.672;6.984;2022-10-17T02:32:13;13.35;;;10.27;;
57433;SDS011;43277;52.672;6.984;2022-10-17T02:34:49;12.88;;;9.68;;
57433;SDS011;43277;52.672;6.984;2022-10-17T02:37:20;12.43;;;9.23;;
57433;SDS011;43277;52.672;6.984;2022-10-17T02:39:51;13.35;;;10.35;;
57433;SDS011;43277;52.672;6.984;2022-10-17T02:42:20;16.10;;;10.23;;
57433;SDS011;43277;52.672;6.984;2022-10-17T02:44:48;13.25;;;10.60;;
57433;SDS011;43277;52.672;6.984;2022-10-17T02:47:22;16.60;;;10.90;;
57433;SDS011;43277;52.672;6.984;2022-10-17T02:49:53;15.98;;;10.95;;
57433;SDS011;43277;52.672;6.984;2022-10-17T02:55:16;11.75;;;9.77;;
57433;SDS011;43277;52.672;6.984;2022-10-17T02:57:57;12.52;;;9.93;;
57433;SDS011;43277;52.672;6.984;2022-10-17T03:00:27;13.40;;;10.80;;
57433;SDS011;43277;52.672;6.984;2022-10-17T03:02:54;12.00;;;9.75;;
57433;SDS011;43277;52.672;6.984;2022-10-17T03:07:47;12.85;;;11.40;;
57433;SDS011;43277;52.672;6.984;2022-10-17T03:10:13;16.30;;;11.00;;
57433;SDS011;43277;52.672;6.984;2022-10-17T03:12:39;13.75;;;11.10;;
57433;SDS011;43277;52.672;6.984;2022-10-17T03:15:05;14.52;;;11.35;;
57433;SDS011;43277;52.672;6.984;2022-10-17T03:17:31;17.13;;;11.82;;
57433;SDS011;43277;52.672;6.984;2022-10-17T03:19:57;12.23;;;10.93;;
57433;SDS011;43277;52.672;6.984;2022-10-17T03:22:23;13.60;;;11.57;;
57433;SDS011;43277;52.672;6.984;2022-10-17T03:24:49;17.80;;;12.80;;
57433;SDS011;43277;52.672;6.984;2022-10-17T03:27:14;13.60;;;11.70;;
57433;SDS011;43277;52.672;6.984;2022-10-17T03:29:40;13.10;;;10.30;;
57433;SDS011;43277;52.672;6.984;2022-10-17T03:32:06;16.58;;;12.02;;
57433;SDS011;43277;52.672;6.984;2022-10-17T03:34:31;15.30;;;12.30;;
57433;SDS011;43277;52.672;6.984;2022-10-17T03:36:57;13.93;;;11.38;;
57433;SDS011;43277;52.672;6.984;2022-10-17T03:39:23;15.73;;;12.75;;
57433;SDS011;43277;52.672;6.984;2022-10-17T03:41:48;14.77;;;12.05;;
57433;SDS011;43277;52.672;6.984;2022-10-17T03:44:14;14.23;;;11.98;;
57433;SDS011;43277;52.672;6.984;2022-10-17T03:46:40;15.65;;;13.68;;
57433;SDS011;43277;52.672;6.984;2022-10-17T03:49:07;16.38;;;13.27;;
57433;SDS011;43277;52.672;6.984;2022-10-17T03:51:33;15.32;;;12.05;;
57433;SDS011;43277;52.672;6.984;2022-10-17T03:53:59;16.08;;;14.32;;
57433;SDS011;43277;52.672;6.984;2022-10-17T03:56:25;18.65;;;14.50;;
57433;SDS011;43277;52.672;6.984;2022-10-17T03:58:51;22.98;;;15.38;;
57433;SDS011;43277;52.672;6.984;2022-10-17T04:01:17;18.95;;;16.88;;
57433;SDS011;43277;52.672;6.984;2022-10-17T04:03:43;18.45;;;16.50;;
57433;SDS011;43277;52.672;6.984;2022-10-17T04:06:16;20.20;;;17.58;;
57433;SDS011;43277;52.672;6.984;2022-10-17T04:08:43;21.67;;;19.38;;
57433;SDS011;43277;52.672;6.984;2022-10-17T04:11:10;21.83;;;19.75;;
57433;SDS011;43277;52.672;6.984;2022-10-17T04:13:39;25.38;;;21.92;;
57433;SDS011;43277;52.672;6.984;2022-10-17T04:16:06;27.35;;;21.48;;
57433;SDS011;43277;52.672;6.984;2022-10-17T04:18:34;24.52;;;22.00;;
57433;SDS011;43277;52.672;6.984;2022-10-17T04:21:00;24.40;;;22.00;;
57433;SDS011;43277;52.672;6.984;2022-10-17T04:23:27;24.38;;;21.75;;
57433;SDS011;43277;52.672;6.984;2022-10-17T04:25:56;31.67;;;23.65;;
57433;SDS011;43277;52.672;6.984;2022-10-17T04:28:23;28.10;;;25.27;;
57433;SDS011;43277;52.672;6.984;2022-10-17T04:30:58;27.25;;;24.48;;
57433;SDS011;43277;52.672;6.984;2022-10-17T04:33:24;26.08;;;23.58;;
57433;SDS011;43277;52.672;6.984;2022-10-17T04:35:57;26.77;;;23.88;;
57433;SDS011;43277;52.672;6.984;2022-10-17T04:38:35;27.20;;;24.30;;
57433;SDS011;43277;52.672;6.984;2022-10-17T04:41:01;24.98;;;22.48;;
57433;SDS011;43277;52.672;6.984;2022-10-17T04:43:29;26.45;;;23.67;;
57433;SDS011;43277;52.672;6.984;2022-10-17T04:45:56;29.90;;;24.15;;
57433;SDS011;43277;52.672;6.984;2022-10-17T04:48:23;26.38;;;22.50;;
57433;SDS011;43277;52.672;6.984;2022-10-17T04:50:56;24.35;;;21.75;;
57433;SDS011;43277;52.672;6.984;2022-10-17T04:53:23;23.25;;;20.00;;
57433;SDS011;43277;52.672;6.984;2022-10-17T04:55:49;22.50;;;20.15;;
57433;SDS011;43277;52.672;6.984;2022-10-17T04:58:15;23.60;;;21.17;;
57433;SDS011;43277;52.672;6.984;2022-10-17T05:00:41;22.20;;;19.77;;
57433;SDS011;43277;52.672;6.984;2022-10-17T05:03:07;24.88;;;20.92;;
57433;SDS011;43277;52.672;6.984;2022-10-17T05:05:33;22.20;;;19.90;;
57433;SDS011;43277;52.672;6.984;2022-10-17T05:08:01;23.60;;;21.25;;
57433;SDS011;43277;52.672;6.984;2022-10-17T05:10:26;23.38;;;20.45;;
57433;SDS011;43277;52.672;6.984;2022-10-17T05:12:52;23.10;;;20.58;;
57433;SDS011;43277;52.672;6.984;2022-10-17T05:15:17;22.10;;;19.70;;
57433;SDS011;43277;52.672;6.984;2022-10-17T05:17:43;22.58;;;20.27;;
57433;SDS011;43277;52.672;6.984;2022-10-17T05:20:08;21.75;;;19.48;;
57433;SDS011;43277;52.672;6.984;2022-10-17T05:22:34;22.60;;;20.20;;
57433;SDS011;43277;52.672;6.984;2022-10-17T05:25:00;21.95;;;19.15;;
57433;SDS011;43277;52.672;6.984;2022-10-17T05:27:26;21.67;;;19.30;;
57433;SDS011;43277;52.672;6.984;2022-10-17T05:29:51;22.98;;;20.23;;
57433;SDS011;43277;52.672;6.984;2022-10-17T05:32:17;22.80;;;19.60;;
57433;SDS011;43277;52.672;6.984;2022-10-17T05:34:42;23.73;;;21.25;;
57433;SDS011;43277;52.672;6.984;2022-10-17T05:37:08;22.73;;;20.45;;
57433;SDS011;43277;52.672;6.984;2022-10-17T05:39:34;22.17;;;19.98;;
57433;SDS011;43277;52.672;6.984;2022-10-17T05:41:59;21.98;;;19.77;;
57433;SDS011;43277;52.672;6.984;2022-10-17T05:44:25;24.27;;;21.02;;
57433;SDS011;43277;52.672;6.984;2022-10-17T05:46:50;24.88;;;21.23;;
57433;SDS011;43277;52.672;6.984;2022-10-17T05:49:16;23.50;;;21.00;;
57433;SDS011;43277;52.672;6.984;2022-10-17T05:51:42;22.98;;;20.75;;
57433;SDS011;43277;52.672;6.984;2022-10-17T05:54:07;23.15;;;20.48;;
57433;SDS011;43277;52.672;6.984;2022-10-17T05:56:33;23.23;;;20.73;;
57433;SDS011;43277;52.672;6.984;2022-10-17T05:59:00;22.40;;;20.00;;
57433;SDS011;43277;52.672;6.984;2022-10-17T06:01:26;22.67;;;19.75;;
57433;SDS011;43277;52.672;6.984;2022-10-17T06:03:52;23.58;;;21.23;;
57433;SDS011;43277;52.672;6.984;2022-10-17T06:06:18;22.95;;;20.52;;
57433;SDS011;43277;52.672;6.984;2022-10-17T06:08:44;22.55;;;20.15;;
57433;SDS011;43277;52.672;6.984;2022-10-17T06:11:10;21.95;;;19.63;;
57433;SDS011;43277;52.672;6.984;2022-10-17T06:13:37;22.55;;;20.15;;
57433;SDS011;43277;52.672;6.984;2022-10-17T06:16:03;20.92;;;18.55;;
57433;SDS011;43277;52.672;6.984;2022-10-17T06:18:29;23.50;;;20.85;;
57433;SDS011;43277;52.672;6.984;2022-10-17T06:21:00;21.67;;;18.52;;
57433;SDS011;43277;52.672;6.984;2022-10-17T06:23:27;20.42;;;17.75;;
57433;SDS011;43277;52.672;6.984;2022-10-17T06:25:56;23.95;;;17.25;;
57433;SDS011;43277;52.672;6.984;2022-10-17T06:28:23;22.83;;;16.95;;
57433;SDS011;43277;52.672;6.984;2022-10-17T06:30:48;20.60;;;16.52;;
57433;SDS011;43277;52.672;6.984;2022-10-17T06:33:14;19.20;;;15.90;;
57433;SDS011;43277;52.672;6.984;2022-10-17T06:35:40;18.70;;;15.93;;
57433;SDS011;43277;52.672;6.984;2022-10-17T06:38:06;18.38;;;15.18;;
57433;SDS011;43277;52.672;6.984;2022-10-17T06:40:31;20.60;;;15.73;;
57433;SDS011;43277;52.672;6.984;2022-10-17T06:42:57;21.90;;;15.05;;
57433;SDS011;43277;52.672;6.984;2022-10-17T06:45:23;17.20;;;13.77;;
57433;SDS011;43277;52.672;6.984;2022-10-17T06:47:48;17.52;;;13.45;;
57433;SDS011;43277;52.672;6.984;2022-10-17T06:50:14;16.90;;;13.95;;
57433;SDS011;43277;52.672;6.984;2022-10-17T06:52:40;16.98;;;13.98;;
57433;SDS011;43277;52.672;6.984;2022-10-17T06:55:05;17.35;;;13.55;;
57433;SDS011;43277;52.672;6.984;2022-10-17T06:57:31;14.13;;;12.60;;
57433;SDS011;43277;52.672;6.984;2022-10-17T06:59:57;16.85;;;13.35;;
57433;SDS011;43277;52.672;6.984;2022-10-17T07:02:22;15.88;;;13.25;;
57433;SDS011;43277;52.672;6.984;2022-10-17T07:04:48;16.42;;;13.20;;
57433;SDS011;43277;52.672;6.984;2022-10-17T07:07:14;17.85;;;12.88;;
57433;SDS011;43277;52.672;6.984;2022-10-17T07:09:40;15.75;;;13.68;;
57433;SDS011;43277;52.672;6.984;2022-10-17T07:12:05;15.70;;;12.98;;
57433;SDS011;43277;52.672;6.984;2022-10-17T07:14:32;17.02;;;12.60;;
57433;SDS011;43277;52.672;6.984;2022-10-17T07:16:59;16.80;;;12.23;;
57433;SDS011;43277;52.672;6.984;2022-10-17T07:19:25;15.18;;;12.38;;
57433;SDS011;43277;52.672;6.984;2022-10-17T07:21:51;17.55;;;12.55;;
57433;SDS011;43277;52.672;6.984;2022-10-17T07:24:17;15.52;;;12.40;;
57433;SDS011;43277;52.672;6.984;2022-10-17T07:26:43;16.98;;;12.35;;
57433;SDS011;43277;52.672;6.984;2022-10-17T07:29:09;14.25;;;12.00;;
57433;SDS011;43277;52.672;6.984;2022-10-17T07:31:35;14.48;;;11.82;;
57433;SDS011;43277;52.672;6.984;2022-10-17T07:34:01;14.55;;;12.07;;
57433;SDS011;43277;52.672;6.984;2022-10-17T07:36:26;15.35;;;11.45;;
57433;SDS011;43277;52.672;6.984;2022-10-17T07:38:52;16.38;;;11.55;;
57433;SDS011;43277;52.672;6.984;2022-10-17T07:41:18;16.67;;;11.50;;
57433;SDS011;43277;52.672;6.984;2022-10-17T07:43:44;13.40;;;10.77;;
57433;SDS011;43277;52.672;6.984;2022-10-17T07:46:09;19.17;;;12.30;;
57433;SDS011;43277;52.672;6.984;2022-10-17T07:48:36;15.43;;;10.82;;
57433;SDS011;43277;52.672;6.984;2022-10-17T07:51:03;13.32;;;10.82;;
57433;SDS011;43277;52.672;6.984;2022-10-17T07:53:30;13.65;;;10.80;;
57433;SDS011;43277;52.672;6.984;2022-10-17T07:55:56;15.57;;;10.05;;
57433;SDS011;43277;52.672;6.984;2022-10-17T07:58:22;14.95;;;10.20;;
57433;SDS011;43277;52.672;6.984;2022-10-17T08:00:48;13.93;;;9.95;;
57433;SDS011;43277;52.672;6.984;2022-10-17T08:03:14;16.52;;;10.43;;
57433;SDS011;43277;52.672;6.984;2022-10-17T08:05:40;12.45;;;9.40;;
57433;SDS011;43277;52.672;6.984;2022-10-17T08:08:06;15.20;;;10.63;;
57433;SDS011;43277;52.672;6.984;2022-10-17T08:10:32;13.38;;;9.05;;
57433;SDS011;43277;52.672;6.984;2022-10-17T08:12:57;13.63;;;8.80;;
57433;SDS011;43277;52.672;6.984;2022-10-17T08:15:23;11.73;;;9.13;;
57433;SDS011;43277;52.672;6.984;2022-10-17T08:17:50;15.50;;;8.93;;
57433;SDS011;43277;52.672;6.984;2022-10-17T08:20:15;13.95;;;8.90;;
57433;SDS011;43277;52.672;6.984;2022-10-17T08:22:42;11.98;;;8.50;;
57433;SDS011;43277;52.672;6.984;2022-10-17T08:25:07;10.38;;;7.70;;
57433;SDS011;43277;52.672;6.984;2022-10-17T08:27:33;12.23;;;7.75;;
57433;SDS011;43277;52.672;6.984;2022-10-17T08:29:59;13.63;;;8.10;;
57433;SDS011;43277;52.672;6.984;2022-10-17T08:32:26;10.90;;;7.22;;
57433;SDS011;43277;52.672;6.984;2022-10-17T08:34:52;11.43;;;7.95;;
57433;SDS011;43277;52.672;6.984;2022-10-17T08:37:19;10.43;;;7.93;;
57433;SDS011;43277;52.672;6.984;2022-10-17T08:39:46;11.93;;;7.68;;
57433;SDS011;43277;52.672;6.984;2022-10-17T08:48:08;13.77;;;7.35;;
57433;SDS011;43277;52.672;6.984;2022-10-17T08:50:45;15.40;;;7.40;;
57433;SDS011;43277;52.672;6.984;2022-10-17T08:53:37;10.65;;;6.82;;
57433;SDS011;43277;52.672;6.984;2022-10-17T08:58:47;13.77;;;6.93;;
57433;SDS011;43277;52.672;6.984;2022-10-17T09:06:34;14.70;;;7.85;;
57433;SDS011;43277;52.672;6.984;2022-10-17T09:14:35;10.77;;;6.47;;
57433;SDS011;43277;52.672;6.984;2022-10-17T09:20:13;10.77;;;4.93;;
57433;SDS011;43277;52.672;6.984;2022-10-17T09:22:46;11.23;;;5.07;;
57433;SDS011;43277;52.672;6.984;2022-10-17T09:25:34;11.75;;;5.05;;
57433;SDS011;43277;52.672;6.984;2022-10-17T09:31:00;9.80;;;4.97;;
57433;SDS011;43277;52.672;6.984;2022-10-17T09:33:28;15.57;;;5.43;;
57433;SDS011;43277;52.672;6.984;2022-10-17T09:35:59;10.55;;;5.38;;
57433;SDS011;43277;52.672;6.984;2022-10-17T09:38:29;12.45;;;5.25;;
57433;SDS011;43277;52.672;6.984;2022-10-17T09:41:02;12.85;;;5.05;;
57433;SDS011;43277;52.672;6.984;2022-10-17T09:43:28;12.40;;;4.85;;
57433;SDS011;43277;52.672;6.984;2022-10-17T09:46:07;12.25;;;4.72;;
57433;SDS011;43277;52.672;6.984;2022-10-17T09:48:44;14.25;;;5.10;;
57433;SDS011;43277;52.672;6.984;2022-10-17T09:51:43;11.55;;;5.18;;
57433;SDS011;43277;52.672;6.984;2022-10-17T09:54:17;12.18;;;5.15;;
57433;SDS011;43277;52.672;6.984;2022-10-17T09:56:55;10.23;;;5.03;;
57433;SDS011;43277;52.672;6.984;2022-10-17T09:59:45;10.65;;;5.28;;
57433;SDS011;43277;52.672;6.984;2022-10-17T10:04:50;13.38;;;5.15;;
57433;SDS011;43277;52.672;6.984;2022-10-17T10:07:16;9.35;;;5.18;;
57433;SDS011;43277;52.672;6.984;2022-10-17T10:09:44;12.50;;;5.05;;
57433;SDS011;43277;52.672;6.984;2022-10-17T10:12:19;20.48;;;6.25;;
57433;SDS011;43277;52.672;6.984;2022-10-17T10:14:50;19.95;;;8.70;;
57433;SDS011;43277;52.672;6.984;2022-10-17T10:17:50;14.70;;;7.43;;
57433;SDS011;43277;52.672;6.984;2022-10-17T10:20:25;11.68;;;7.85;;
57433;SDS011;43277;52.672;6.984;2022-10-17T10:23:11;11.73;;;6.93;;
57433;SDS011;43277;52.672;6.984;2022-10-17T10:25:58;13.10;;;8.88;;
57433;SDS011;43277;52.672;6.984;2022-10-17T10:28:31;12.77;;;6.70;;
57433;SDS011;43277;52.672;6.984;2022-10-17T10:31:00;15.30;;;8.52;;
57433;SDS011;43277;52.672;6.984;2022-10-17T10:33:29;12.00;;;6.57;;
57433;SDS011;43277;52.672;6.984;2022-10-17T10:35:58;11.32;;;7.20;;
57433;SDS011;43277;52.672;6.984;2022-10-17T10:38:26;15.43;;;7.68;;
57433;SDS011;43277;52.672;6.984;2022-10-17T10:40:53;13.32;;;6.80;;
57433;SDS011;43277;52.672;6.984;2022-10-17T10:43:37;14.95;;;7.93;;
57433;SDS011;43277;52.672;6.984;2022-10-17T10:46:23;10.98;;;7.30;;
57433;SDS011;43277;52.672;6.984;2022-10-17T10:51:37;15.05;;;8.57;;
57433;SDS011;43277;52.672;6.984;2022-10-17T10:54:16;15.60;;;9.43;;
57433;SDS011;43277;52.672;6.984;2022-10-17T10:56:54;17.98;;;10.90;;
57433;SDS011;43277;52.672;6.984;2022-10-17T10:59:31;15.57;;;10.13;;
57433;SDS011;43277;52.672;6.984;2022-10-17T11:13:24;15.70;;;12.38;;
57433;SDS011;43277;52.672;6.984;2022-10-17T11:16:13;16.02;;;11.80;;
57433;SDS011;43277;52.672;6.984;2022-10-17T11:18:55;14.23;;;9.27;;
57433;SDS011;43277;52.672;6.984;2022-10-17T11:21:25;16.48;;;10.35;;
57433;SDS011;43277;52.672;6.984;2022-10-17T11:24:17;15.50;;;9.88;;
57433;SDS011;43277;52.672;6.984;2022-10-17T11:26:49;14.60;;;11.20;;
57433;SDS011;43277;52.672;6.984;2022-10-17T11:29:24;10.18;;;7.95;;
57433;SDS011;43277;52.672;6.984;2022-10-17T11:31:57;10.10;;;7.53;;
57433;SDS011;43277;52.672;6.984;2022-10-17T11:34:34;10.07;;;6.90;;
57433;SDS011;43277;52.672;6.984;2022-10-17T11:37:29;9.32;;;6.38;;
57433;SDS011;43277;52.672;6.984;2022-10-17T11:39:59;11.73;;;7.05;;
57433;SDS011;43277;52.672;6.984;2022-10-17T11:42:40;8.82;;;5.95;;
57433;SDS011;43277;52.672;6.984;2022-10-17T11:45:14;9.25;;;6.68;;
57433;SDS011;43277;52.672;6.984;2022-10-17T11:47:49;8.77;;;6.17;;
57433;SDS011;43277;52.672;6.984;2022-10-17T11:50:23;11.75;;;7.13;;
57433;SDS011;43277;52.672;6.984;2022-10-17T11:53:07;11.13;;;7.90;;
57433;SDS011;43277;52.672;6.984;2022-10-17T11:55:36;15.60;;;8.90;;
57433;SDS011;43277;52.672;6.984;2022-10-17T11:58:06;11.25;;;8.10;;
57433;SDS011;43277;52.672;6.984;2022-10-17T12:05:51;9.27;;;6.05;;
57433;SDS011;43277;52.672;6.984;2022-10-17T12:13:45;9.32;;;7.10;;
57433;SDS011;43277;52.672;6.984;2022-10-17T12:18:48;8.88;;;6.50;;
57433;SDS011;43277;52.672;6.984;2022-10-17T12:21:55;9.55;;;6.22;;
57433;SDS011;43277;52.672;6.984;2022-10-17T12:27:20;10.07;;;8.33;;
57433;SDS011;43277;52.672;6.984;2022-10-17T12:29:59;9.00;;;6.88;;
57433;SDS011;43277;52.672;6.984;2022-10-17T12:32:26;11.00;;;7.38;;
57433;SDS011;43277;52.672;6.984;2022-10-17T12:34:53;12.32;;;7.15;;
57433;SDS011;43277;52.672;6.984;2022-10-17T12:43:01;11.40;;;7.30;;
57433;SDS011;43277;52.672;6.984;2022-10-17T12:45:51;11.60;;;6.95;;
57433;SDS011;43277;52.672;6.984;2022-10-17T12:56:09;10.82;;;7.85;;
57433;SDS011;43277;52.672;6.984;2022-10-17T12:58:47;11.73;;;8.20;;
57433;SDS011;43277;52.672;6.984;2022-10-17T13:01:18;14.00;;;8.40;;
57433;SDS011;43277;52.672;6.984;2022-10-17T13:03:55;10.90;;;8.68;;
57433;SDS011;43277;52.672;6.984;2022-10-17T13:06:26;11.95;;;8.77;;
57433;SDS011;43277;52.672;6.984;2022-10-17T13:09:36;13.98;;;7.80;;
57433;SDS011;43277;52.672;6.984;2022-10-17T13:11:57;17.77;;;8.70;;
57433;SDS011;43277;52.672;6.984;2022-10-17T13:14:27;9.93;;;7.38;;
57433;SDS011;43277;52.672;6.984;2022-10-17T13:16:56;10.80;;;8.20;;
57433;SDS011;43277;52.672;6.984;2022-10-17T13:19:31;14.27;;;8.32;;
57433;SDS011;43277;52.672;6.984;2022-10-17T13:24:47;11.82;;;7.82;;
57433;SDS011;43277;52.672;6.984;2022-10-17T13:27:28;10.38;;;8.63;;
57433;SDS011;43277;52.672;6.984;2022-10-17T13:29:58;11.80;;;8.98;;
57433;SDS011;43277;52.672;6.984;2022-10-17T13:32:26;13.82;;;9.48;;
57433;SDS011;43277;52.672;6.984;2022-10-17T13:35:14;10.93;;;7.80;;
57433;SDS011;43277;52.672;6.984;2022-10-17T13:37:41;13.00;;;9.40;;
57433;SDS011;43277;52.672;6.984;2022-10-17T13:40:19;10.10;;;7.45;;
57433;SDS011;43277;52.672;6.984;2022-10-17T13:42:50;13.85;;;9.35;;
57433;SDS011;43277;52.672;6.984;2022-10-17T13:45:23;11.65;;;7.93;;
57433;SDS011;43277;52.672;6.984;2022-10-17T13:47:55;10.52;;;7.25;;
57433;SDS011;43277;52.672;6.984;2022-10-17T13:50:28;11.90;;;7.15;;
57433;SDS011;43277;52.672;6.984;2022-10-17T13:53:15;11.02;;;7.60;;
57433;SDS011;43277;52.672;6.984;2022-10-17T13:55:53;10.35;;;7.10;;
57433;SDS011;43277;52.672;6.984;2022-10-17T13:58:22;14.80;;;7.28;;
57433;SDS011;43277;52.672;6.984;2022-10-17T14:00:48;9.55;;;7.45;;
57433;SDS011;43277;52.672;6.984;2022-10-17T14:03:16;8.73;;;6.38;;
57433;SDS011;43277;52.672;6.984;2022-10-17T14:05:59;8.85;;;6.13;;
57433;SDS011;43277;52.672;6.984;2022-10-17T14:08:29;10.48;;;7.30;;
57433;SDS011;43277;52.672;6.984;2022-10-17T14:10:56;10.15;;;6.18;;
57433;SDS011;43277;52.672;6.984;2022-10-17T14:13:23;11.02;;;5.85;;
57433;SDS011;43277;52.672;6.984;2022-10-17T14:15:52;9.88;;;6.10;;
57433;SDS011;43277;52.672;6.984;2022-10-17T14:18:21;10.18;;;6.45;;
57433;SDS011;43277;52.672;6.984;2022-10-17T14:28:32;9.18;;;6.47;;
57433;SDS011;43277;52.672;6.984;2022-10-17T14:31:18;11.45;;;6.65;;
57433;SDS011;43277;52.672;6.984;2022-10-17T14:33:49;10.43;;;6.85;;
57433;SDS011;43277;52.672;6.984;2022-10-17T14:36:17;9.38;;;6.18;;
57433;SDS011;43277;52.672;6.984;2022-10-17T14:38:49;10.07;;;5.90;;
57433;SDS011;43277;52.672;6.984;2022-10-17T14:44:05;9.80;;;6.47;;
57433;SDS011;43277;52.672;6.984;2022-10-17T14:46:42;11.90;;;6.88;;
57433;SDS011;43277;52.672;6.984;2022-10-17T14:49:18;10.63;;;6.55;;
57433;SDS011;43277;52.672;6.984;2022-10-17T14:52:09;10.73;;;6.80;;
57433;SDS011;43277;52.672;6.984;2022-10-17T14:54:36;10.10;;;7.07;;
57433;SDS011;43277;52.672;6.984;2022-10-17T14:57:07;8.70;;;6.63;;
57433;SDS011;43277;52.672;6.984;2022-10-17T14:59:38;8.05;;;4.28;;
57433;SDS011;43277;52.672;6.984;2022-10-17T15:02:04;12.23;;;9.10;;
57433;SDS011;43277;52.672;6.984;2022-10-17T15:04:30;11.10;;;4.68;;
57433;SDS011;43277;52.672;6.984;2022-10-17T15:06:57;8.23;;;3.58;;
57433;SDS011;43277;52.672;6.984;2022-10-17T15:09:23;9.20;;;3.35;;
57433;SDS011;43277;52.672;6.984;2022-10-17T15:11:52;13.70;;;3.95;;
57433;SDS011;43277;52.672;6.984;2022-10-17T15:14:19;15.90;;;3.45;;
57433;SDS011;43277;52.672;6.984;2022-10-17T15:16:44;6.10;;;2.63;;
57433;SDS011;43277;52.672;6.984;2022-10-17T15:19:11;11.60;;;3.67;;
57433;SDS011;43277;52.672;6.984;2022-10-17T15:21:37;7.75;;;2.72;;
57433;SDS011;43277;52.672;6.984;2022-10-17T15:24:03;5.05;;;2.10;;
57433;SDS011;43277;52.672;6.984;2022-10-17T15:26:30;7.18;;;2.17;;
57433;SDS011;43277;52.672;6.984;2022-10-17T15:28:57;7.28;;;2.55;;
57433;SDS011;43277;52.672;6.984;2022-10-17T15:31:24;5.22;;;1.95;;
57433;SDS011;43277;52.672;6.984;2022-10-17T15:33:51;6.93;;;1.98;;
57433;SDS011;43277;52.672;6.984;2022-10-17T15:36:24;6.68;;;2.00;;
57433;SDS011;43277;52.672;6.984;2022-10-17T15:38:53;6.30;;;1.83;;
57433;SDS011;43277;52.672;6.984;2022-10-17T15:41:21;5.60;;;2.15;;
57433;SDS011;43277;52.672;6.984;2022-10-17T15:43:48;6.55;;;1.88;;
57433;SDS011;43277;52.672;6.984;2022-10-17T15:46:21;7.78;;;2.60;;
57433;SDS011;43277;52.672;6.984;2022-10-17T15:48:52;7.05;;;2.60;;
57433;SDS011;43277;52.672;6.984;2022-10-17T15:51:18;5.20;;;2.10;;
57433;SDS011;43277;52.672;6.984;2022-10-17T15:53:45;5.13;;;2.30;;
57433;SDS011;43277;52.672;6.984;2022-10-17T15:56:24;5.00;;;2.40;;
57433;SDS011;43277;52.672;6.984;2022-10-17T15:58:54;10.00;;;3.10;;
57433;SDS011;43277;52.672;6.984;2022-10-17T16:01:22;12.43;;;4.82;;
57433;SDS011;43277;52.672;6.984;2022-10-17T16:03:50;7.43;;;3.75;;
57433;SDS011;43277;52.672;6.984;2022-10-17T16:06:16;5.53;;;3.15;;
57433;SDS011;43277;52.672;6.984;2022-10-17T16:08:44;8.50;;;4.68;;
57433;SDS011;43277;52.672;6.984;2022-10-17T16:11:56;8.77;;;4.10;;
57433;SDS011;43277;52.672;6.984;2022-10-17T16:13:58;8.50;;;3.58;;
57433;SDS011;43277;52.672;6.984;2022-10-17T16:16:25;6.72;;;3.58;;
57433;SDS011;43277;52.672;6.984;2022-10-17T16:18:51;11.00;;;5.50;;
57433;SDS011;43277;52.672;6.984;2022-10-17T16:21:17;9.02;;;3.55;;
57433;SDS011;43277;52.672;6.984;2022-10-17T16:23:46;8.18;;;3.85;;
57433;SDS011;43277;52.672;6.984;2022-10-17T16:26:12;6.95;;;4.10;;
57433;SDS011;43277;52.672;6.984;2022-10-17T16:28:39;8.70;;;3.92;;
57433;SDS011;43277;52.672;6.984;2022-10-17T16:31:12;7.82;;;3.90;;
57433;SDS011;43277;52.672;6.984;2022-10-17T16:33:51;8.05;;;4.35;;
57433;SDS011;43277;52.672;6.984;2022-10-17T16:36:18;7.18;;;4.22;;
57433;SDS011;43277;52.672;6.984;2022-10-17T16:38:44;8.13;;;4.35;;
57433;SDS011;43277;52.672;6.984;2022-10-17T16:43:48;9.02;;;5.10;;
57433;SDS011;43277;52.672;6.984;2022-10-17T16:46:14;8.57;;;3.70;;
57433;SDS011;43277;52.672;6.984;2022-10-17T16:48:41;11.10;;;5.93;;